Far Barcelona — EA7560 — position and weather

sailwx.info

Track history (hours):
 
Tides and Currents Weather Stations Pressure Air Temp Water Temp Dewpoint Dewpoint Depression Visibility Wind Speed Wind Dir Waves Ship Positions

Far Barcelona

Last reported at 2017-Apr-17 00:50 UTC. Time now 2017-Apr-26 15:40 UTC.
Position N 41°09' E 001°57'.
Warning: this ship's position is 9 days out of date.

Length 33 m; draft 3.4 m.

Type: Sailing vessel. MMSI: 224191570.

Date/timePositionNaut miles runAvg speedWind from/ knotsBaromVisibWave heightAir tempDewpointWater temp
2017-Apr-17 00:50N 41°09' E 001°57'2 6.8
2017-Apr-17 00:28N 41°08' E 001°54'3 6.7
2017-Apr-17 00:00N 41°06' E 001°50'3 6.9
2017-Apr-16 23:29N 41°05' E 001°46'3 6.9
2017-Apr-16 23:00N 41°03' E 001°42'3 6.7
2017-Apr-16 22:29N 41°01' E 001°39'3 6.9
2017-Apr-16 22:00N 40°59' E 001°35'4 7.1
2017-Apr-16 21:30N 40°57' E 001°31'4 7.3
2017-Apr-16 20:59N 40°55' E 001°27'4 7.4
2017-Apr-16 20:23N 40°53' E 001°22'3 7.7
2017-Apr-16 19:56N 40°51' E 001°18'4 7.8
2017-Apr-16 19:27N 40°49' E 001°15'8 8.0
2017-Apr-16 18:23N 40°44' E 001°05'3 8.2
2017-Apr-16 18:00N 40°42' E 001°01'5 8.4
2017-Apr-16 17:26N 40°40' E 000°56'3 8.0
2017-Apr-16 17:00N 40°38' E 000°53'4 8.1
2017-Apr-16 16:30N 40°35' E 000°49'5 8.3
2017-Apr-16 15:53N 40°32' E 000°43'3 7.8
2017-Apr-16 15:29N 40°31' E 000°39'5 7.2
2017-Apr-16 14:47N 40°34' E 000°33'1 1.1
2017-Apr-16 14:00N 40°33' E 000°32'  
2017-Apr-13 23:44N 40°37' E 000°36'0 1.6
2017-Apr-13 23:30N 40°36' E 000°36'6 3.4
2017-Apr-13 21:46N 40°32' E 000°41'2 7.1
2017-Apr-13 21:30N 40°32' E 000°43'3 6.9
2017-Apr-13 21:00N 40°33' E 000°47'4 7.0
2017-Apr-13 20:30N 40°36' E 000°51'4 7.3
2017-Apr-13 20:00N 40°38' E 000°54'4 7.5
2017-Apr-13 19:30N 40°40' E 000°58'4 7.6
2017-Apr-13 18:59N 40°43' E 001°02'4 7.4
2017-Apr-13 18:27N 40°45' E 001°06'3 7.4
2017-Apr-13 18:00N 40°47' E 001°10'5 7.4
2017-Apr-13 17:17N 40°50' E 001°16'2 7.5
2017-Apr-13 17:00N 40°51' E 001°18'4 7.6
2017-Apr-13 16:27N 40°54' E 001°22'4 7.8
2017-Apr-13 16:00N 40°56' E 001°26'9 7.5
2017-Apr-13 14:50N 41°00' E 001°36'3 7.9
2017-Apr-13 14:30N 41°02' E 001°39'7 6.8
2017-Apr-13 13:26N 41°06' E 001°47'3 7.1
2017-Apr-13 13:00N 41°08' E 001°50'4 7.6
2017-Apr-13 12:30N 41°10' E 001°54'4 8.1
2017-Apr-13 12:00N 41°12' E 001°59'5 7.4
2017-Apr-13 11:22N 41°15' E 002°04'3 7.3
2017-Apr-13 11:00N 41°16' E 002°07'3 6.5
2017-Apr-13 10:31N 41°18' E 002°10'4 6.9
2017-Apr-13 10:00N 41°21' E 002°12'3 6.1
2017-Apr-13 09:27N 41°24' E 002°14'2 4.3
2017-Apr-13 08:54N 41°26' E 002°15'1 2.2
2017-Apr-13 08:30N 41°26' E 002°15'  
2017-Apr-10 18:36N 41°26' E 002°15'0 2.0
2017-Apr-10 18:29N 41°26' E 002°15'4 6.2
2017-Apr-10 17:52N 41°28' E 002°19'2 5.7
2017-Apr-10 17:30N 41°29' E 002°22'3 5.8
2017-Apr-10 16:58N 41°30' E 002°25'2 4.6
2017-Apr-10 16:30N 41°31' E 002°27'1 2.7
2017-Apr-10 16:00N 41°32' E 002°29'2 4.5
2017-Apr-10 15:30N 41°33' E 002°31'2 3.8
2017-Apr-10 14:58N 41°34' E 002°34'2 4.3
2017-Apr-10 14:27N 41°35' E 002°37'4 4.6
2017-Apr-10 13:30N 41°37' E 002°42'2 4.8
2017-Apr-10 13:00N 41°37' E 002°45'12 4.4
2017-Apr-10 10:20N 41°44' E 002°58'  
2017-Apr-07 18:23N 41°51' E 003°07'0 0.0
2017-Apr-07 17:57N 41°51' E 003°07'0 0.0
2017-Apr-07 17:30N 41°51' E 003°07'8 4.2
2017-Apr-07 15:35N 41°45' E 003°00'2 5.9
2017-Apr-07 15:17N 41°43' E 002°59'2 6.0
2017-Apr-07 14:57N 41°42' E 002°56'3 6.3
2017-Apr-07 14:30N 41°41' E 002°53'28 6.5
2017-Apr-07 10:10N 41°26' E 002°21'1 5.7
2017-Apr-07 10:00N 41°25' E 002°20'4 5.5
2017-Apr-07 09:16N 41°23' E 002°16'2 5.0
2017-Apr-07 08:51N 41°22' E 002°13'2 4.5
2017-Apr-07 08:27N 41°21' E 002°11'  
Track history (hours):
 
Tides and Currents Weather Stations Pressure Air Temp Water Temp Dewpoint Dewpoint Depression Visibility Wind Speed Wind Dir Waves Ship Positions

Far Barcelona

Last reported at 2017-Apr-17 00:50 UTC. Time now 2017-Apr-26 15:40 UTC.
Position N 41°09' E 001°57'.
Warning: this ship's position is 9 days out of date.

Length 33 m; draft 3.4 m.

Type: Sailing vessel. MMSI: 224191570.

Date/timePositionNaut miles runAvg speedWind from/ knotsBaromVisibWave heightAir tempDewpointWater temp
2017-Apr-17 00:50N 41°09' E 001°57'2 6.8
2017-Apr-17 00:28N 41°08' E 001°54'3 6.7
2017-Apr-17 00:00N 41°06' E 001°50'3 6.9
2017-Apr-16 23:29N 41°05' E 001°46'3 6.9
2017-Apr-16 23:00N 41°03' E 001°42'3 6.7
2017-Apr-16 22:29N 41°01' E 001°39'3 6.9
2017-Apr-16 22:00N 40°59' E 001°35'4 7.1
2017-Apr-16 21:30N 40°57' E 001°31'4 7.3
2017-Apr-16 20:59N 40°55' E 001°27'4 7.4
2017-Apr-16 20:23N 40°53' E 001°22'3 7.7
2017-Apr-16 19:56N 40°51' E 001°18'4 7.8
2017-Apr-16 19:27N 40°49' E 001°15'8 8.0
2017-Apr-16 18:23N 40°44' E 001°05'3 8.2
2017-Apr-16 18:00N 40°42' E 001°01'5 8.4
2017-Apr-16 17:26N 40°40' E 000°56'3 8.0
2017-Apr-16 17:00N 40°38' E 000°53'4 8.1
2017-Apr-16 16:30N 40°35' E 000°49'5 8.3
2017-Apr-16 15:53N 40°32' E 000°43'3 7.8
2017-Apr-16 15:29N 40°31' E 000°39'5 7.2
2017-Apr-16 14:47N 40°34' E 000°33'1 1.1
2017-Apr-16 14:00N 40°33' E 000°32'  
2017-Apr-13 23:44N 40°37' E 000°36'0 1.6
2017-Apr-13 23:30N 40°36' E 000°36'6 3.4
2017-Apr-13 21:46N 40°32' E 000°41'2 7.1
2017-Apr-13 21:30N 40°32' E 000°43'3 6.9
2017-Apr-13 21:00N 40°33' E 000°47'4 7.0
2017-Apr-13 20:30N 40°36' E 000°51'4 7.3
2017-Apr-13 20:00N 40°38' E 000°54'4 7.5
2017-Apr-13 19:30N 40°40' E 000°58'4 7.6
2017-Apr-13 18:59N 40°43' E 001°02'4 7.4
2017-Apr-13 18:27N 40°45' E 001°06'3 7.4
2017-Apr-13 18:00N 40°47' E 001°10'5 7.4
2017-Apr-13 17:17N 40°50' E 001°16'2 7.5
2017-Apr-13 17:00N 40°51' E 001°18'4 7.6
2017-Apr-13 16:27N 40°54' E 001°22'4 7.8
2017-Apr-13 16:00N 40°56' E 001°26'9 7.5
2017-Apr-13 14:50N 41°00' E 001°36'3 7.9
2017-Apr-13 14:30N 41°02' E 001°39'7 6.8
2017-Apr-13 13:26N 41°06' E 001°47'3 7.1
2017-Apr-13 13:00N 41°08' E 001°50'4 7.6
2017-Apr-13 12:30N 41°10' E 001°54'4 8.1
2017-Apr-13 12:00N 41°12' E 001°59'5 7.4
2017-Apr-13 11:22N 41°15' E 002°04'3 7.3
2017-Apr-13 11:00N 41°16' E 002°07'3 6.5
2017-Apr-13 10:31N 41°18' E 002°10'4 6.9
2017-Apr-13 10:00N 41°21' E 002°12'3 6.1
2017-Apr-13 09:27N 41°24' E 002°14'2 4.3
2017-Apr-13 08:54N 41°26' E 002°15'1 2.2
2017-Apr-13 08:30N 41°26' E 002°15'  
2017-Apr-10 18:36N 41°26' E 002°15'0 2.0
2017-Apr-10 18:29N 41°26' E 002°15'4 6.2
2017-Apr-10 17:52N 41°28' E 002°19'2 5.7
2017-Apr-10 17:30N 41°29' E 002°22'3 5.8
2017-Apr-10 16:58N 41°30' E 002°25'2 4.6
2017-Apr-10 16:30N 41°31' E 002°27'1 2.7
2017-Apr-10 16:00N 41°32' E 002°29'2 4.5
2017-Apr-10 15:30N 41°33' E 002°31'2 3.8
2017-Apr-10 14:58N 41°34' E 002°34'2 4.3
2017-Apr-10 14:27N 41°35' E 002°37'4 4.6
2017-Apr-10 13:30N 41°37' E 002°42'2 4.8
2017-Apr-10 13:00N 41°37' E 002°45'12 4.4
2017-Apr-10 10:20N 41°44' E 002°58'  
2017-Apr-07 18:23N 41°51' E 003°07'0 0.0
2017-Apr-07 17:57N 41°51' E 003°07'0 0.0
2017-Apr-07 17:30N 41°51' E 003°07'8 4.2
2017-Apr-07 15:35N 41°45' E 003°00'2 5.9
2017-Apr-07 15:17N 41°43' E 002°59'2 6.0
2017-Apr-07 14:57N 41°42' E 002°56'3 6.3
2017-Apr-07 14:30N 41°41' E 002°53'28 6.5
2017-Apr-07 10:10N 41°26' E 002°21'1 5.7
2017-Apr-07 10:00N 41°25' E 002°20'4 5.5
2017-Apr-07 09:16N 41°23' E 002°16'2 5.0
2017-Apr-07 08:51N 41°22' E 002°13'2 4.5
2017-Apr-07 08:27N 41°21' E 002°11'  

Dump ship's entire track history